Time;durP1;ratioP1;P1;durP2;ratioP2;P2;SDS_P1;SDS_P2;PMS_P1;PMS_P2;Temp;Humidity;BMP_temperature;BMP_pressure;BME280_temperature;BME280_humidity;BME280_pressure;Samples;Min_cycle;Max_cycle;Signal;HPM_P1;HPM_P2
2021/04/08 00:02:07;;;;;;;16.48;8.40;;;;;;;3.19;98.93;96877.97;4983934;28;20061;-61
2021/04/08 00:04:32;;;;;;;16.83;8.93;;;;;;;3.20;98.97;96863.94;4983093;28;20129;-63
2021/04/08 00:06:58;;;;;;;17.35;8.50;;;;;;;3.05;99.00;96839.88;4984367;28;20046;-63
2021/04/08 00:09:24;;;;;;;14.88;8.68;;;;;;;3.17;100.00;96859.13;4984479;28;20547;-63
2021/04/08 00:11:50;;;;;;;12.48;7.65;;;;;;;2.49;99.08;96758.13;4982552;28;20137;-62
2021/04/08 00:14:16;;;;;;;18.02;9.25;;;;;;;3.21;99.16;96867.50;4984567;28;20246;-61
2021/04/08 00:16:42;;;;;;;15.90;9.48;;;;;;;3.21;99.85;96854.59;4982113;28;20065;-62
2021/04/08 00:19:09;;;;;;;22.48;12.05;;;;;;;3.18;99.95;96859.94;4982883;28;20537;-62
2021/04/08 00:21:35;;;;;;;21.00;11.30;;;;;;;3.10;100.00;96853.34;4983755;28;20042;-62
2021/04/08 00:24:00;;;;;;;13.13;7.45;;;;;;;2.40;99.64;96735.50;4983453;28;20032;-62
2021/04/08 00:26:26;;;;;;;12.63;7.47;;;;;;;3.07;99.60;96854.00;4984054;28;20038;-62
2021/04/08 00:28:52;;;;;;;16.45;9.32;;;;;;;3.09;100.00;96846.28;4984195;28;20121;-61
2021/04/08 00:31:17;;;;;;;14.55;7.75;;;;;;;2.45;100.00;96749.00;4983881;28;20053;-62
2021/04/08 00:33:43;;;;;;;12.27;6.80;;;;;;;3.11;100.00;96841.28;4984573;28;20037;-62
2021/04/08 00:36:08;;;;;;;13.23;7.07;;;;;;;2.88;100.00;96828.97;4983812;28;20050;-62
2021/04/08 00:38:33;;;;;;;12.00;6.95;;;;;;;2.88;100.00;96826.22;4984443;28;20061;-62
2021/04/08 00:41:00;;;;;;;12.05;6.72;;;;;;;2.90;100.00;96811.09;4984342;28;20045;-61
2021/04/08 00:43:25;;;;;;;10.15;6.50;;;;;;;2.86;100.00;96803.88;4983305;28;20075;-62
2021/04/08 00:45:50;;;;;;;13.05;6.72;;;;;;;2.88;100.00;96828.97;4982480;28;20421;-62
2021/04/08 00:48:16;;;;;;;13.07;8.13;;;;;;;2.11;100.00;96716.28;4984125;28;20041;-61
2021/04/08 00:50:42;;;;;;;11.32;7.10;;;;;;;2.93;100.00;96837.81;4983680;28;20071;-61
2021/04/08 00:53:18;;;;;;;11.57;6.45;;;;;;;2.44;100.00;96812.97;4984088;28;20105;-61
2021/04/08 00:55:47;;;;;;;11.93;7.00;;;;;;;2.84;100.00;96817.06;4983679;28;20038;-61
2021/04/08 00:58:14;;;;;;;12.43;6.32;;;;;;;2.88;100.00;96834.44;4988114;28;20066;-61
2021/04/08 01:00:42;;;;;;;14.20;7.25;;;;;;;2.74;100.00;96804.56;4987976;28;20034;-61
2021/04/08 01:03:07;;;;;;;13.93;7.95;;;;;;;2.54;100.00;96763.44;4988171;28;20030;-60
2021/04/08 01:05:33;;;;;;;14.63;8.20;;;;;;;2.53;100.00;96756.38;4985864;28;20041;-61
2021/04/08 01:08:00;;;;;;;15.45;7.30;;;;;;;2.11;100.00;96646.06;4987542;28;20050;-62
2021/04/08 01:10:25;;;;;;;12.13;7.63;;;;;;;3.16;100.00;96812.94;4985676;28;20544;-61
2021/04/08 01:12:54;;;;;;;14.32;8.23;;;;;;;2.97;100.00;96805.91;4987845;28;20035;-60
2021/04/08 01:15:21;;;;;;;18.15;9.80;;;;;;;3.10;100.00;96825.97;4298714;28;20004202;-61
2021/04/08 01:18:02;;;;;;;17.23;9.57;;;;;;;3.19;100.00;96824.03;4986250;28;20513;-61
2021/04/08 01:20:33;;;;;;;24.83;11.38;;;;;;;3.24;100.00;96821.09;4985620;28;20057;-61
2021/04/08 01:23:31;;;;;;;24.02;11.50;;;;;;;2.05;98.82;96635.63;4987747;28;20233;-62
2021/04/08 01:26:16;;;;;;;21.35;10.13;;;;;;;3.23;99.71;96822.22;4985489;28;20045;-62
2021/04/08 01:28:57;;;;;;;19.20;10.43;;;;;;;2.88;97.94;96746.91;4987617;28;20448;-62
2021/04/08 01:31:24;;;;;;;22.10;10.25;;;;;;;2.98;96.35;96758.31;4986912;28;20034;-61
2021/04/08 01:33:54;;;;;;;29.45;12.68;;;;;;;3.41;96.65;96821.03;4987232;28;20026;-62
2021/04/08 01:36:30;;;;;;;17.08;10.00;;;;;;;3.17;96.13;96777.03;4986996;28;20552;-63
2021/04/08 01:39:02;;;;;;;17.55;9.20;;;;;;;3.51;95.38;96842.53;4986148;28;20058;-63
2021/04/08 01:41:33;;;;;;;19.02;9.38;;;;;;;3.56;94.05;96823.19;4987124;28;20038;-63
2021/04/08 01:43:59;;;;;;;18.23;11.55;;;;;;;3.50;95.07;96818.22;4987351;28;20058;-63
2021/04/08 01:46:27;;;;;;;191.88;97.32;;;;;;;3.62;96.36;96827.34;4985109;28;20035;-63
2021/04/08 01:48:54;;;;;;;23.65;13.48;;;;;;;3.60;95.16;96820.59;4987178;28;20477;-63
2021/04/08 01:51:22;;;;;;;15.32;9.75;;;;;;;3.49;93.46;96806.50;4986448;28;20041;-63
2021/04/08 01:53:52;;;;;;;19.83;11.02;;;;;;;3.47;92.09;96818.91;4987160;28;20573;-62
2021/04/08 01:56:21;;;;;;;21.17;13.43;;;;;;;3.49;90.64;96822.94;4985364;28;20049;-62
2021/04/08 01:58:48;;;;;;;14.52;8.60;;;;;;;3.57;88.93;96818.53;4987041;28;20441;-61
2021/04/08 02:01:17;;;;;;;18.70;10.60;;;;;;;3.26;90.37;96796.94;4986723;28;20068;-60
2021/04/08 02:03:42;;;;;;;18.40;11.23;;;;;;;3.55;91.15;96824.34;4986829;28;20081;-61
2021/04/08 02:06:09;;;;;;;15.35;9.85;;;;;;;3.55;92.13;96827.09;4986484;28;20553;-62
2021/04/08 02:08:41;;;;;;;15.50;9.70;;;;;;;3.48;92.96;96829.53;4985735;28;20050;-62
2021/04/08 02:11:10;;;;;;;12.82;8.13;;;;;;;3.12;87.65;96790.91;4986666;28;20709;-61
2021/04/08 02:13:36;;;;;;;14.90;8.93;;;;;;;3.18;92.32;96811.47;4985626;28;20560;-61
2021/04/08 02:16:02;;;;;;;14.05;8.70;;;;;;;3.34;90.13;96826.22;4984916;28;20034;-62
2021/04/08 02:18:29;;;;;;;24.52;11.98;;;;;;;3.18;91.00;96811.47;4986546;28;20586;-61
2021/04/08 02:20:58;;;;;;;19.88;11.70;;;;;;;3.33;92.68;96832.84;4985912;28;20520;-61
2021/04/08 02:23:25;;;;;;;29.90;18.75;;;;;;;3.31;93.55;96821.41;4986265;28;20062;-61
2021/04/08 02:25:53;;;;;;;21.10;11.82;;;;;;;3.36;93.66;96829.44;4985703;28;20039;-62
2021/04/08 02:28:20;;;;;;;21.65;13.27;;;;;;;2.91;91.17;96784.53;4984994;28;20057;-61
2021/04/08 02:30:48;;;;;;;13.93;8.32;;;;;;;3.27;86.08;96819.66;4985704;28;20038;-63
2021/04/08 02:33:24;;;;;;;14.48;8.20;;;;;;;3.10;86.32;96804.91;4985082;28;20045;-60
2021/04/08 02:35:54;;;;;;;18.20;9.10;;;;;;;3.24;85.76;96829.31;4985827;28;20496;-60
2021/04/08 02:38:25;;;;;;;12.20;7.78;;;;;;;3.16;86.74;96824.69;4984652;28;20042;-61
2021/04/08 02:40:51;;;;;;;13.20;8.82;;;;;;;3.03;87.64;96828.44;4985621;28;20042;-61
2021/04/08 02:43:17;;;;;;;13.90;8.40;;;;;;;3.06;88.75;96836.00;4984606;28;20026;-61
2021/04/08 02:45:43;;;;;;;17.13;10.43;;;;;;;1.87;87.78;96639.53;4985415;28;20037;-60
2021/04/08 02:48:11;;;;;;;19.15;10.25;;;;;;;3.13;87.72;96827.28;4986277;28;20102;-61
2021/04/08 02:50:40;;;;;;;15.98;8.10;;;;;;;3.12;84.60;96837.41;4985420;28;20042;-60
2021/04/08 02:53:26;;;;;;;13.80;8.35;;;;;;;2.74;85.51;96790.06;4984866;28;20489;-60
2021/04/08 02:56:01;;;;;;;15.63;8.45;;;;;;;3.07;83.90;96841.13;4985570;28;20043;-60
2021/04/08 02:58:30;;;;;;;12.18;7.88;;;;;;;2.49;84.45;96778.09;4984632;28;20041;-60
2021/04/08 03:01:01;;;;;;;14.88;8.25;;;;;;;3.04;84.98;96860.94;4985273;28;20161;-60
2021/04/08 03:03:40;;;;;;;12.75;7.63;;;;;;;2.80;83.30;96827.03;4985901;28;20146;-60
2021/04/08 03:06:08;;;;;;;15.63;8.93;;;;;;;3.08;85.00;96866.56;4983738;28;20417;-59
2021/04/08 03:08:35;;;;;;;16.27;9.15;;;;;;;2.69;82.30;96825.78;4985500;28;20054;-60
2021/04/08 03:11:06;;;;;;;15.55;9.77;;;;;;;3.07;81.51;96886.84;4985149;28;20038;-62
2021/04/08 03:13:36;;;;;;;13.60;7.57;;;;;;;3.13;79.59;96885.53;4986107;28;20034;-60
2021/04/08 03:16:05;;;;;;;13.80;8.30;;;;;;;3.16;79.73;96905.97;4983907;28;20058;-60
2021/04/08 03:18:32;;;;;;;15.88;9.57;;;;;;;3.31;81.11;96900.78;4985841;28;20133;-61
2021/04/08 03:20:58;;;;;;;13.77;8.70;;;;;;;3.06;80.75;96882.50;4984555;28;20524;-61
2021/04/08 03:23:25;;;;;;;14.23;8.60;;;;;;;3.27;81.95;96919.00;4983768;28;20042;-61
2021/04/08 03:25:53;;;;;;;14.32;8.00;;;;;;;3.27;81.73;96912.69;4983259;28;20479;-61
2021/04/08 03:28:20;;;;;;;14.20;7.10;;;;;;;3.32;81.93;96921.53;4985488;28;20485;-61
2021/04/08 03:30:47;;;;;;;14.90;9.02;;;;;;;3.23;85.78;96911.72;4983681;28;20034;-61
2021/04/08 03:33:14;;;;;;;17.52;9.52;;;;;;;3.23;84.00;96907.06;4984001;28;20034;-60
2021/04/08 03:35:45;;;;;;;10.90;7.13;;;;;;;3.30;81.43;96917.53;4984826;28;20099;-60
2021/04/08 03:38:11;;;;;;;12.32;7.28;;;;;;;3.29;79.43;96921.41;4984992;28;20038;-60
2021/04/08 03:40:37;;;;;;;16.55;8.48;;;;;;;3.31;81.74;96930.88;4982622;28;20038;-60
2021/04/08 03:43:03;;;;;;;13.93;7.05;;;;;;;2.83;80.97;96887.38;4983421;28;20054;-60
2021/04/08 03:45:29;;;;;;;12.35;7.25;;;;;;;3.45;78.73;96942.44;4983350;28;20063;-61
2021/04/08 03:48:00;;;;;;;20.27;12.02;;;;;;;3.54;80.26;96951.41;4983349;28;20129;-61
2021/04/08 03:50:27;;;;;;;15.57;7.78;;;;;;;3.68;75.82;96945.75;4982749;28;20053;-60
2021/04/08 03:52:53;;;;;;;13.75;6.57;;;;;;;2.92;70.28;96830.72;4984706;28;20034;-61
2021/04/08 03:55:21;;;;;;;8.25;5.00;;;;;;;3.21;66.32;96876.47;4984219;28;20061;-61
2021/04/08 03:57:47;;;;;;;8.85;5.95;;;;;;;3.81;69.36;96970.16;4982848;28;20513;-61
2021/04/08 04:00:13;;;;;;;7.18;5.15;;;;;;;3.86;66.98;96969.97;4982536;28;20128;-60
2021/04/08 04:02:40;;;;;;;8.93;5.55;;;;;;;3.87;69.43;96970.78;4982910;28;20041;-60
2021/04/08 04:05:08;;;;;;;12.07;6.53;;;;;;;3.80;72.87;96981.44;4984256;28;20026;-60
2021/04/08 04:07:39;;;;;;;13.48;7.40;;;;;;;3.72;75.42;96991.31;4984079;28;20548;-59
2021/04/08 04:10:06;;;;;;;11.15;6.93;;;;;;;3.31;75.96;96947.31;4982630;28;20042;-60
2021/04/08 04:12:35;;;;;;;11.45;6.57;;;;;;;3.68;76.85;96998.59;4982940;28;20169;-60
2021/04/08 04:15:05;;;;;;;13.57;7.50;;;;;;;3.69;77.11;96997.44;4984253;28;20030;-61
2021/04/08 04:17:31;;;;;;;15.20;7.75;;;;;;;3.74;77.63;97000.00;4984510;28;20158;-62
2021/04/08 04:19:58;;;;;;;30.33;12.63;;;;;;;3.75;78.63;97004.34;4982481;28;20336;-60
2021/04/08 04:22:24;;;;;;;22.85;12.90;;;;;;;2.95;80.26;96878.50;4983757;28;20084;-60
2021/04/08 04:24:50;;;;;;;19.13;11.02;;;;;;;3.78;81.37;96989.22;4983285;28;20445;-60
2021/04/08 04:27:15;;;;;;;16.00;9.82;;;;;;;3.97;82.05;97009.59;4983980;28;20466;-60
2021/04/08 04:29:42;;;;;;;15.82;10.25;;;;;;;3.73;81.01;96954.56;4984278;28;20456;-61
2021/04/08 04:32:11;;;;;;;18.45;10.35;;;;;;;4.11;80.16;97012.91;4983109;28;20038;-61
2021/04/08 04:34:40;;;;;;;19.55;10.02;;;;;;;3.83;78.37;96970.63;4984519;28;20490;-60
2021/04/08 04:37:06;;;;;;;24.45;12.98;;;;;;;4.16;78.88;97001.75;4983482;28;20486;-61
2021/04/08 04:39:32;;;;;;;28.88;15.77;;;;;;;3.59;77.18;96921.13;4984108;28;20494;-60
2021/04/08 04:41:58;;;;;;;29.35;14.98;;;;;;;4.12;75.91;96967.94;4984379;28;20512;-61
2021/04/08 04:44:24;;;;;;;23.70;13.57;;;;;;;4.39;77.38;97027.75;4984542;28;20034;-60
2021/04/08 04:46:51;;;;;;;27.70;14.88;;;;;;;4.07;80.57;96954.41;4982314;28;20560;-60
2021/04/08 04:49:16;;;;;;;30.70;17.63;;;;;;;4.44;80.56;97008.38;4984260;28;20030;-60
2021/04/08 04:51:42;;;;;;;38.22;21.17;;;;;;;3.85;79.68;96913.59;4983702;28;20085;-60
2021/04/08 04:54:07;;;;;;;34.47;19.00;;;;;;;4.69;80.08;97051.28;4982783;28;20034;-60
2021/04/08 04:56:33;;;;;;;36.58;21.88;;;;;;;4.50;79.61;97026.22;4981558;28;20034;-59
2021/04/08 04:58:58;;;;;;;26.38;17.25;;;;;;;4.64;80.64;97035.03;4984229;28;20041;-60
2021/04/08 05:01:23;;;;;;;20.63;14.38;;;;;;;4.37;81.20;96997.13;4984169;28;20038;-61
2021/04/08 05:03:49;;;;;;;33.95;21.02;;;;;;;4.73;83.55;97053.41;4982622;28;20585;-61
2021/04/08 05:06:14;;;;;;;22.88;14.55;;;;;;;4.22;81.76;97000.44;4983208;28;20053;-61
2021/04/08 05:08:40;;;;;;;19.75;12.13;;;;;;;4.76;82.65;97044.50;4983661;28;20053;-61
2021/04/08 05:11:06;;;;;;;16.85;11.38;;;;;;;4.85;82.75;97050.72;4981646;28;20423;-61
2021/04/08 05:13:31;;;;;;;15.73;10.73;;;;;;;4.52;82.52;96996.53;4983735;28;20085;-61
2021/04/08 05:15:57;;;;;;;18.27;12.35;;;;;;;4.55;83.85;97011.56;4983058;28;20038;-61
2021/04/08 05:18:22;;;;;;;28.02;16.00;;;;;;;4.65;82.89;97025.66;4982141;28;20095;-62
2021/04/08 05:20:48;;;;;;;30.38;16.65;;;;;;;4.87;82.91;97075.91;4981539;28;20445;-61
2021/04/08 05:23:15;;;;;;;20.23;12.68;;;;;;;4.88;82.60;97074.75;4983867;28;20054;-61
2021/04/08 05:25:40;;;;;;;18.17;11.10;;;;;;;4.96;81.49;97073.88;4983480;28;20041;-61
2021/04/08 05:28:06;;;;;;;25.35;15.63;;;;;;;5.09;83.00;97062.63;4984277;28;20425;-61
2021/04/08 05:30:31;;;;;;;20.75;13.55;;;;;;;4.93;81.25;97016.94;4981669;28;20069;-61
2021/04/08 05:32:56;;;;;;;23.77;14.38;;;;;;;4.54;78.99;96980.56;4983891;28;20034;-61
2021/04/08 05:35:22;;;;;;;18.95;12.48;;;;;;;5.27;77.55;97068.81;4983042;28;20080;-62
2021/04/08 05:37:47;;;;;;;15.70;9.07;;;;;;;5.22;77.51;97067.06;4983947;28;20048;-59
2021/04/08 05:40:13;;;;;;;17.63;12.48;;;;;;;5.33;79.53;97067.44;4981746;28;20104;-62
2021/04/08 05:42:43;;;;;;;21.23;12.43;;;;;;;5.44;78.46;97082.38;4983758;28;20108;-62
2021/04/08 05:45:09;;;;;;;17.33;11.48;;;;;;;4.57;75.32;96933.28;4987094;28;20608;-60
2021/04/08 05:47:35;;;;;;;23.27;14.02;;;;;;;5.68;78.04;97074.25;4987242;28;20047;-61
2021/04/08 05:50:00;;;;;;;58.92;35.92;;;;;;;5.78;76.05;97096.63;4986763;28;20042;-62
2021/04/08 05:52:26;;;;;;;30.67;20.08;;;;;;;5.97;76.81;97076.91;4987046;28;20033;-62
2021/04/08 05:54:51;;;;;;;33.72;19.48;;;;;;;6.08;75.37;97080.81;4987398;28;20026;-61
2021/04/08 05:57:17;;;;;;;25.27;16.52;;;;;;;6.08;76.92;97067.06;4986759;28;20501;-61
2021/04/08 05:59:42;;;;;;;40.50;23.38;;;;;;;6.38;75.14;97071.25;4986939;28;20042;-61
2021/04/08 06:02:07;;;;;;;33.58;18.08;;;;;;;6.31;72.96;97082.00;4984700;28;20485;-61
2021/04/08 06:04:33;;;;;;;25.52;15.73;;;;;;;6.19;72.74;97079.25;4986851;28;20516;-61
2021/04/08 06:06:58;;;;;;;10.18;7.35;;;;;;;6.02;71.48;97084.94;4986395;28;20526;-62
2021/04/08 06:09:24;;;;;;;18.70;11.20;;;;;;;5.68;73.79;97050.34;4985197;28;20050;-61
2021/04/08 06:11:49;;;;;;;15.30;9.48;;;;;;;5.58;70.89;97026.03;4986424;28;20027;-60
2021/04/08 06:14:14;;;;;;;24.77;14.73;;;;;;;5.95;68.47;97090.19;4985628;28;20476;-63
2021/04/08 06:16:40;;;;;;;39.40;22.23;;;;;;;5.73;69.44;97006.16;4986543;28;20650;-61
2021/04/08 06:19:05;;;;;;;18.90;11.48;;;;;;;6.59;71.41;97085.69;4985452;28;20427;-61
2021/04/08 06:21:31;;;;;;;15.07;8.02;;;;;;;6.92;71.63;97089.16;4986205;28;20580;-61
2021/04/08 06:23:56;;;;;;;8.45;6.75;;;;;;;7.13;70.42;97087.03;4986722;28;20489;-62
2021/04/08 06:26:21;;;;;;;11.63;7.03;;;;;;;7.12;66.14;97085.44;4986351;28;20606;-61
2021/04/08 06:28:48;;;;;;;14.10;7.22;;;;;;;7.32;63.36;97089.97;4986807;28;20046;-61
2021/04/08 06:31:13;;;;;;;8.10;5.65;;;;;;;7.29;63.01;97054.88;4980543;28;20575;-61
2021/04/08 06:33:39;;;;;;;11.88;6.28;;;;;;;7.65;61.13;97054.72;4982469;28;20030;-63
2021/04/08 06:36:05;;;;;;;8.13;5.50;;;;;;;7.62;60.53;97069.22;4981564;28;20033;-60
2021/04/08 06:38:31;;;;;;;15.75;8.77;;;;;;;8.02;57.21;97106.97;4981711;28;20081;-59
2021/04/08 06:40:56;;;;;;;10.65;7.38;;;;;;;6.96;56.55;96955.13;4984031;28;20460;-62
2021/04/08 06:43:22;;;;;;;9.50;7.05;;;;;;;8.03;54.60;97075.47;4984268;28;20043;-59
2021/04/08 06:45:52;;;;;;;15.65;9.52;;;;;;;7.96;55.73;97086.31;4983682;28;20038;-61
2021/04/08 06:48:43;;;;;;;12.00;7.05;;;;;;;8.43;54.30;97117.56;4985162;28;20118;-62
2021/04/08 06:51:19;;;;;;;9.75;7.22;;;;;;;8.69;56.06;97121.41;4983843;28;20457;-62
2021/04/08 06:53:47;;;;;;;9.55;6.10;;;;;;;8.59;54.08;97115.63;4984368;28;20034;-59
2021/04/08 06:56:13;;;;;;;74.22;43.70;;;;;;;8.57;55.09;97069.03;4982861;28;20034;-62
2021/04/08 06:58:40;;;;;;;12.63;8.63;;;;;;;9.06;51.36;97119.16;4984708;28;20510;-62
2021/04/08 07:01:07;;;;;;;9.82;6.07;;;;;;;8.14;51.05;96982.78;4984566;28;20364;-59
2021/04/08 07:03:33;;;;;;;7.13;4.78;;;;;;;9.11;49.83;97127.19;4981541;28;20413;-62
2021/04/08 07:05:59;;;;;;;22.48;13.77;;;;;;;8.58;49.82;97009.13;4982656;28;20033;-63
2021/04/08 07:08:24;;;;;;;5.75;4.25;;;;;;;8.68;50.46;97083.09;4983703;28;20097;-57
2021/04/08 07:10:50;;;;;;;8.85;6.28;;;;;;;9.08;52.68;97139.78;4985141;28;20528;-57
2021/04/08 07:13:15;;;;;;;7.20;5.40;;;;;;;9.04;51.46;97143.59;4985024;28;20476;-58
2021/04/08 07:15:41;;;;;;;22.40;17.88;;;;;;;8.27;51.80;97101.00;4983977;28;20030;-62
2021/04/08 07:18:06;;;;;;;7.82;5.68;;;;;;;8.65;52.53;97147.31;4983996;28;20584;-61
2021/04/08 07:20:32;;;;;;;5.88;4.82;;;;;;;8.84;51.63;97150.19;4983984;28;20040;-58
2021/04/08 07:23:11;;;;;;;9.57;5.53;;;;;;;7.44;52.22;97081.69;4983616;28;20061;-60
2021/04/08 07:25:37;;;;;;;7.40;4.63;;;;;;;8.37;50.69;97096.91;4983126;28;20069;-60
2021/04/08 07:28:28;;;;;;;7.28;5.70;;;;;;;9.01;50.74;97145.09;4982285;28;20042;-59
2021/04/08 07:30:54;;;;;;;7.88;4.50;;;;;;;8.39;49.30;97149.81;4983194;28;20034;-59
2021/04/08 07:33:19;;;;;;;9.27;5.90;;;;;;;8.57;49.53;97153.81;4983001;28;20628;-62
2021/04/08 07:35:45;;;;;;;15.88;11.07;;;;;;;9.38;49.83;97159.41;4983273;28;20034;-61
2021/04/08 07:38:10;;;;;;;16.00;8.95;;;;;;;9.39;48.21;97105.72;4986653;28;20052;-59
2021/04/08 07:40:36;;;;;;;11.75;7.00;;;;;;;9.44;46.43;97088.84;4980052;28;20328;-59
2021/04/08 07:43:12;;;;;;;9.85;4.60;;;;;;;9.79;46.18;97142.16;4983449;28;20053;-59
2021/04/08 07:45:38;;;;;;;8.38;6.05;;;;;;;10.11;45.28;97168.59;4981489;28;20026;-61
2021/04/08 07:48:08;;;;;;;9.57;5.70;;;;;;;8.31;45.49;96976.91;4984592;28;20389;-59
2021/04/08 07:50:39;;;;;;;11.70;5.40;;;;;;;9.95;46.68;97183.59;4983255;28;20536;-62
2021/04/08 07:53:05;;;;;;;6.88;4.90;;;;;;;9.58;46.04;97116.81;4982341;28;20042;-60
2021/04/08 07:55:30;;;;;;;13.10;7.15;;;;;;;9.98;46.94;97186.47;4983510;28;20038;-60
2021/04/08 07:57:58;;;;;;;6.57;3.40;;;;;;;8.12;43.43;97192.78;4983738;28;20101;-62
2021/04/08 08:00:38;;;;;;;5.03;3.67;;;;;;;8.48;42.74;97203.69;4981769;28;20050;-61
2021/04/08 08:03:10;;;;;;;7.03;3.45;;;;;;;8.78;43.86;97213.19;4983761;28;20042;-61
2021/04/08 08:05:46;;;;;;;11.70;6.57;;;;;;;8.69;43.85;97215.28;4982062;28;20026;-56
2021/04/08 08:08:14;;;;;;;43.55;18.13;;;;;;;7.54;44.73;97207.16;4981676;28;20050;-60
2021/04/08 08:10:53;;;;;;;22.63;12.48;;;;;;;6.87;45.37;97088.56;4982332;28;20037;-62
2021/04/08 08:13:25;;;;;;;12.48;6.15;;;;;;;7.51;45.52;97219.69;4984789;28;20046;-59
2021/04/08 08:15:51;;;;;;;18.83;11.55;;;;;;;6.64;46.80;97118.50;4982575;28;20030;-62
2021/04/08 08:18:28;;;;;;;29.00;14.00;;;;;;;7.05;47.96;97178.84;4980971;28;20571;-60
2021/04/08 08:21:13;;;;;;;5.70;3.47;;;;;;;7.04;45.56;97221.31;4983213;28;20031;-61
2021/04/08 08:23:42;;;;;;;10.30;4.68;;;;;;;3.99;45.26;96804.56;4983432;28;20043;-60
2021/04/08 08:26:40;;;;;;;3.33;1.70;;;;;;;6.74;45.58;97250.16;4982016;28;20027;-62
2021/04/08 08:29:06;;;;;;;6.15;2.47;;;;;;;7.01;43.56;97241.28;4969523;28;20038;-59
2021/04/08 08:31:48;;;;;;;13.07;5.47;;;;;;;6.99;43.21;97185.75;4982591;28;20561;-59
2021/04/08 08:34:35;;;;;;;6.80;3.83;;;;;;;7.14;43.73;97226.38;4980528;28;20047;-59
2021/04/08 08:37:01;;;;;;;8.95;3.95;;;;;;;6.69;41.99;97242.13;4982381;28;20038;-58
2021/04/08 08:39:32;;;;;;;11.02;4.57;;;;;;;6.81;42.49;97222.88;4980614;28;20049;-58
2021/04/08 08:42:04;;;;;;;7.63;4.25;;;;;;;6.70;42.82;97158.41;4979397;28;20095;-60
2021/04/08 08:44:30;;;;;;;5.50;3.03;;;;;;;7.53;42.58;97233.94;4984321;28;20417;-62
2021/04/08 08:47:16;;;;;;;3.08;2.17;;;;;;;4.20;40.93;96827.28;4981061;28;20088;-58
2021/04/08 08:49:43;;;;;;;5.10;2.17;;;;;;;6.60;41.81;97177.31;4982888;28;20030;-64
2021/04/08 08:52:11;;;;;;;5.88;3.17;;;;;;;7.41;42.46;97250.47;4982498;28;20041;-59
2021/04/08 08:54:36;;;;;;;7.07;3.20;;;;;;;7.84;42.48;97260.88;4983040;28;20121;-62
2021/04/08 08:57:04;;;;;;;4.93;3.20;;;;;;;8.25;40.98;97259.81;4983166;28;20125;-61
2021/04/08 08:59:31;;;;;;;8.18;3.65;;;;;;;8.36;41.61;97260.91;4983300;28;20125;-59
2021/04/08 09:01:57;;;;;;;5.43;2.83;;;;;;;8.00;42.32;97285.81;4982405;28;20464;-62
2021/04/08 09:04:23;;;;;;;6.15;2.47;;;;;;;6.51;42.86;97092.13;4982119;28;20105;-61
2021/04/08 09:06:49;;;;;;;4.07;2.58;;;;;;;7.57;43.45;97256.91;4983473;28;20042;-60
2021/04/08 09:09:19;;;;;;;5.75;2.95;;;;;;;7.50;43.86;97264.97;4983697;28;20051;-64
2021/04/08 09:11:45;;;;;;;7.25;3.83;;;;;;;7.39;44.09;97222.47;4982546;28;20019;-64
2021/04/08 09:14:11;;;;;;;4.57;2.45;;;;;;;6.55;42.35;97042.69;4983918;28;20060;-62
2021/04/08 09:16:45;;;;;;;24.08;11.82;;;;;;;7.41;43.93;97225.66;4970663;28;20101;-61
2021/04/08 09:19:12;;;;;;;4.40;2.38;;;;;;;7.72;41.83;97281.03;4986727;28;20042;-63
2021/04/08 09:21:44;;;;;;;6.88;3.00;;;;;;;7.44;42.01;97291.13;4986237;28;20564;-62
2021/04/08 09:24:21;;;;;;;7.68;4.43;;;;;;;7.62;42.48;97253.91;4986715;28;20511;-60
2021/04/08 09:26:50;;;;;;;5.15;3.30;;;;;;;8.33;41.87;97300.25;4986490;28;20095;-64
2021/04/08 09:29:43;;;;;;;3.95;2.15;;;;;;;8.40;41.30;97281.13;4986680;28;20042;-62
2021/04/08 09:32:32;;;;;;;4.72;2.58;;;;;;;7.85;41.56;97281.00;4967849;28;20034;-61
2021/04/08 09:35:04;;;;;;;3.28;2.20;;;;;;;7.79;40.69;97285.16;4970137;28;20045;-61
2021/04/08 09:37:47;;;;;;;7.30;3.35;;;;;;;8.14;38.63;97297.28;4985549;28;20038;-63
2021/04/08 09:40:24;;;;;;;6.07;3.40;;;;;;;7.93;39.99;97296.63;4981755;28;20042;-61
2021/04/08 09:43:00;;;;;;;5.82;3.15;;;;;;;8.16;40.91;97311.50;4986786;28;20039;-61
2021/04/08 09:45:25;;;;;;;4.13;2.72;;;;;;;8.35;40.33;97287.69;4986695;28;20138;-60
2021/04/08 09:48:13;;;;;;;5.55;2.90;;;;;;;7.81;39.67;97294.66;4987084;28;20125;-60
2021/04/08 09:50:51;;;;;;;5.35;2.97;;;;;;;8.56;38.91;97304.06;4986738;28;20031;-61
2021/04/08 09:53:19;;;;;;;9.25;3.47;;;;;;;8.65;33.82;97290.91;4987427;28;20077;-61
2021/04/08 09:55:52;;;;;;;4.00;2.30;;;;;;;9.21;33.45;97298.78;4985202;28;20046;-60
2021/04/08 09:58:26;;;;;;;5.78;3.28;;;;;;;9.39;34.17;97293.72;4986983;28;20093;-61
2021/04/08 10:00:54;;;;;;;7.38;3.83;;;;;;;9.25;37.39;97296.13;4986111;28;20050;-61
2021/04/08 10:03:45;;;;;;;12.05;4.18;;;;;;;8.74;35.44;97288.81;4985476;28;20034;-60
2021/04/08 10:06:20;;;;;;;4.07;2.80;;;;;;;7.79;35.35;97115.00;4984660;28;20046;-61
2021/04/08 10:08:46;;;;;;;4.80;3.08;;;;;;;9.30;35.75;97301.38;4986609;28;20568;-61
2021/04/08 10:11:32;;;;;;;25.73;8.55;;;;;;;8.78;34.12;97289.72;4985817;28;20561;-60
2021/04/08 10:13:58;;;;;;;5.25;2.97;;;;;;;8.46;35.22;97293.50;4986681;28;20050;-60
2021/04/08 10:16:23;;;;;;;5.60;3.03;;;;;;;7.30;38.30;97169.41;4984419;28;20057;-61
2021/04/08 10:18:59;;;;;;;5.60;3.35;;;;;;;8.63;35.23;97254.59;4986672;28;20046;-61
2021/04/08 10:21:25;;;;;;;8.50;3.88;;;;;;;7.74;36.76;97085.69;4984514;28;20441;-62
2021/04/08 10:23:52;;;;;;;7.03;3.80;;;;;;;8.76;37.31;97316.88;4986567;28;20037;-61
2021/04/08 10:26:31;;;;;;;5.72;2.97;;;;;;;8.73;36.98;97292.72;4985857;28;20100;-61
2021/04/08 10:28:58;;;;;;;2.95;2.65;;;;;;;6.01;35.25;96930.16;4985833;28;20482;-61
2021/04/08 10:31:37;;;;;;;6.78;3.38;;;;;;;8.40;36.60;97305.97;4985963;28;20058;-61
2021/04/08 10:34:21;;;;;;;3.25;2.53;;;;;;;8.16;35.89;97279.22;4986645;28;20050;-61
2021/04/08 10:36:53;;;;;;;4.55;3.13;;;;;;;8.47;36.06;97306.97;4985599;28;20026;-61
2021/04/08 10:39:25;;;;;;;4.70;2.97;;;;;;;8.59;36.74;97303.38;4986225;28;20129;-61
2021/04/08 10:41:57;;;;;;;4.53;2.90;;;;;;;8.53;34.45;97315.81;4984136;28;20111;-60
2021/04/08 10:44:33;;;;;;;4.90;2.72;;;;;;;9.19;36.67;97311.34;4987102;28;20069;-61
2021/04/08 10:47:08;;;;;;;5.60;2.88;;;;;;;8.46;34.91;97283.28;4985844;28;20057;-62
2021/04/08 10:49:35;;;;;;;2.97;2.45;;;;;;;8.56;34.40;97315.13;4986014;28;20062;-60
2021/04/08 10:52:09;;;;;;;4.80;2.80;;;;;;;7.08;35.55;97040.44;4985175;28;20037;-62
2021/04/08 10:54:37;;;;;;;6.38;3.13;;;;;;;9.06;36.82;97320.88;4986045;28;20086;-61
2021/04/08 10:57:03;;;;;;;3.17;2.53;;;;;;;8.71;33.15;97228.78;4983788;28;20425;-62
2021/04/08 10:59:29;;;;;;;3.30;2.40;;;;;;;8.35;36.62;97267.56;4986330;28;20034;-60
2021/04/08 11:01:55;;;;;;;4.95;2.90;;;;;;;9.32;34.98;97304.59;4984977;28;20553;-59
2021/04/08 11:04:22;;;;;;;4.43;2.50;;;;;;;9.44;33.36;97285.16;4985895;28;20505;-61
2021/04/08 11:06:49;;;;;;;3.63;2.38;;;;;;;9.84;31.80;97316.19;4985419;28;20572;-61
2021/04/08 11:09:22;;;;;;;4.32;2.78;;;;;;;9.47;33.52;97240.19;4985415;28;20057;-63
2021/04/08 11:11:48;;;;;;;8.07;3.72;;;;;;;10.72;33.03;97317.41;4985069;28;20027;-63
2021/04/08 11:14:22;;;;;;;5.22;3.25;;;;;;;10.89;32.28;97316.97;4984149;28;20043;-61
2021/04/08 11:16:48;;;;;;;;;;;;;;;10.63;29.58;97318.41;4985165;28;20029;-61
2021/04/08 11:19:15;;;;;;;6.63;2.88;;;;;;;7.42;31.89;96913.16;4983585;28;20531;-62
2021/04/08 11:21:41;;;;;;;4.28;2.88;;;;;;;10.62;30.94;97325.09;4984860;28;21224;-60
2021/04/08 11:24:07;;;;;;;5.40;2.58;;;;;;;10.55;31.50;97313.91;4983930;28;20050;-60
2021/04/08 11:26:44;;;;;;;5.80;2.65;;;;;;;10.21;31.87;97291.78;4983493;28;20030;-61
2021/04/08 11:29:10;;;;;;;6.72;4.45;;;;;;;9.84;32.25;97197.22;4985448;28;20088;-61
2021/04/08 11:31:35;;;;;;;5.00;3.45;;;;;;;11.08;30.82;97308.63;4984230;28;20035;-60
2021/04/08 11:34:00;;;;;;;4.10;2.80;;;;;;;10.16;29.34;97223.63;4983411;28;20104;-59
2021/04/08 11:36:27;;;;;;;4.28;2.95;;;;;;;10.65;30.09;97329.13;4983936;28;20039;-61
2021/04/08 11:38:53;;;;;;;3.38;2.50;;;;;;;10.11;29.67;97331.91;4983247;28;20050;-63
2021/04/08 11:41:19;;;;;;;4.15;3.10;;;;;;;9.64;30.54;97212.16;4985706;28;20042;-62
2021/04/08 11:43:52;;;;;;;4.75;2.70;;;;;;;10.01;29.14;97265.97;4985171;28;20490;-63